Time,TemperatureF,DewpointF,PressureIn,WindDirection,WindDirectionDegrees,WindSpeedMPH,WindSpeedGustMPH,Humidity,HourlyPrecipIn,Conditions,Clouds,dailyrainin,SoftwareType,DateUTC
2013-07-26 00:06:00,58.2,56.0,30.06,NNE,30,0.0,1.0,91,0.00,,,0.00,weatherlink.com 1.10,2013-07-26 04:06:00,
2013-07-26 00:21:00,57.2,55.0,30.06,NNE,30,0.0,0.0,91,0.00,,,0.00,weatherlink.com 1.10,2013-07-26 04:21:00,
2013-07-26 00:36:00,57.5,56.0,30.06,NNE,30,0.0,0.0,93,0.00,,,0.00,weatherlink.com 1.10,2013-07-26 04:36:00,
2013-07-26 00:51:00,57.1,55.0,30.07,NNE,30,0.0,1.0,93,0.00,,,0.00,weatherlink.com 1.10,2013-07-26 04:51:00,
2013-07-26 01:06:00,56.6,55.0,30.06,NNE,30,0.0,0.0,94,0.00,,,0.00,weatherlink.com 1.10,2013-07-26 05:06:00,
2013-07-26 01:21:00,56.2,55.0,30.07,NNE,30,0.0,0.0,94,0.00,,,0.00,weatherlink.com 1.10,2013-07-26 05:21:00,
2013-07-26 01:36:00,55.9,54.0,30.06,NNE,30,0.0,0.0,94,0.00,,,0.00,weatherlink.com 1.10,2013-07-26 05:36:00,
2013-07-26 01:51:00,55.8,54.0,30.06,NNE,30,0.0,0.0,95,0.00,,,0.00,weatherlink.com 1.10,2013-07-26 05:51:00,
2013-07-26 02:06:00,55.5,54.0,30.05,NNE,30,0.0,0.0,95,0.00,,,0.00,weatherlink.com 1.10,2013-07-26 06:06:00,
2013-07-26 02:21:00,55.8,55.0,30.05,NNE,30,0.0,0.0,96,0.00,,,0.00,weatherlink.com 1.10,2013-07-26 06:21:00,
2013-07-26 02:36:00,56.1,55.0,30.04,NNE,30,0.0,0.0,96,0.00,,,0.00,weatherlink.com 1.10,2013-07-26 06:36:00,
2013-07-26 02:51:00,56.2,55.0,30.04,NNE,30,0.0,0.0,96,0.00,,,0.00,weatherlink.com 1.10,2013-07-26 06:51:00,
2013-07-26 03:06:00,55.8,55.0,30.03,NNE,30,0.0,0.0,96,0.00,,,0.00,weatherlink.com 1.10,2013-07-26 07:06:00,
2013-07-26 03:21:00,55.6,55.0,30.03,NNE,30,0.0,0.0,96,0.00,,,0.00,weatherlink.com 1.10,2013-07-26 07:21:00,
2013-07-26 03:36:00,55.1,54.0,30.03,NNE,30,0.0,0.0,96,0.00,,,0.00,weatherlink.com 1.10,2013-07-26 07:36:00,
2013-07-26 03:51:00,54.7,54.0,30.03,NNE,30,0.0,0.0,96,0.00,,,0.00,weatherlink.com 1.10,2013-07-26 07:51:00,
2013-07-26 04:06:00,54.2,53.0,30.03,NNE,30,0.0,0.0,96,0.00,,,0.00,weatherlink.com 1.10,2013-07-26 08:06:00,
2013-07-26 04:21:00,54.0,53.0,30.05,NNE,30,0.0,0.0,96,0.00,,,0.00,weatherlink.com 1.10,2013-07-26 08:21:00,
2013-07-26 04:51:00,53.5,53.0,30.04,NNE,30,0.0,0.0,97,0.00,,,0.00,weatherlink.com 1.10,2013-07-26 08:51:00,
2013-07-26 05:21:00,54.0,53.0,30.03,NNE,30,0.0,1.0,97,0.00,,,0.00,weatherlink.com 1.10,2013-07-26 09:21:00,
2013-07-26 05:36:00,53.9,53.0,30.03,NNE,30,0.0,0.0,97,0.00,,,0.00,weatherlink.com 1.10,2013-07-26 09:36:00,
2013-07-26 05:51:00,53.9,53.0,30.02,NNE,30,0.0,0.0,97,0.00,,,0.00,weatherlink.com 1.10,2013-07-26 09:51:00,
2013-07-26 06:06:00,53.5,53.0,30.02,NNE,30,0.0,0.0,97,0.00,,,0.00,weatherlink.com 1.10,2013-07-26 10:06:00,
2013-07-26 06:21:00,52.9,52.0,30.02,NNE,30,0.0,0.0,97,0.00,,,0.00,weatherlink.com 1.10,2013-07-26 10:21:00,
2013-07-26 06:36:00,53.2,52.0,30.03,NNE,30,0.0,0.0,97,0.00,,,0.00,weatherlink.com 1.10,2013-07-26 10:36:00,
2013-07-26 06:51:00,53.1,52.0,30.03,NNE,30,0.0,0.0,97,0.00,,,0.00,weatherlink.com 1.10,2013-07-26 10:51:00,
2013-07-26 07:21:00,54.0,53.0,30.04,NNE,30,0.0,0.0,97,0.00,,,0.00,weatherlink.com 1.10,2013-07-26 11:21:00,
2013-07-26 07:36:00,54.9,54.0,30.04,NNE,30,0.0,0.0,98,0.00,,,0.00,weatherlink.com 1.10,2013-07-26 11:36:00,
2013-07-26 07:51:00,59.1,59.0,30.04,ESE,117,0.0,1.0,98,0.00,,,0.00,weatherlink.com 1.10,2013-07-26 11:51:00,
2013-07-26 08:06:00,61.8,59.0,30.04,SE,129,3.0,3.0,89,0.00,,,0.00,weatherlink.com 1.10,2013-07-26 12:06:00,
2013-07-26 08:21:00,65.2,59.0,30.04,SE,140,0.0,4.0,79,0.00,,,0.00,weatherlink.com 1.10,2013-07-26 12:21:00,
2013-07-26 08:36:00,68.0,59.0,30.04,SE,141,1.0,4.0,74,0.00,,,0.00,weatherlink.com 1.10,2013-07-26 12:36:00,
2013-07-26 08:52:00,69.8,60.0,30.04,SE,131,2.0,5.0,72,0.00,,,0.00,weatherlink.com 1.10,2013-07-26 12:52:00,
2013-07-26 09:07:00,71.2,61.0,30.04,SE,124,1.0,5.0,70,0.00,,,0.00,weatherlink.com 1.10,2013-07-26 13:07:00,
2013-07-26 09:22:00,74.7,62.0,30.04,SE,142,1.0,2.0,65,0.00,,,0.00,weatherlink.com 1.10,2013-07-26 13:22:00,
2013-07-26 09:37:00,75.9,61.0,30.04,SSE,160,1.0,4.0,61,0.00,,,0.00,weatherlink.com 1.10,2013-07-26 13:37:00,
2013-07-26 09:52:00,74.5,62.0,30.04,ESE,108,0.0,3.0,65,0.00,,,0.00,weatherlink.com 1.10,2013-07-26 13:52:00,
2013-07-26 10:07:00,73.7,62.0,30.04,SSW,200,0.0,3.0,66,0.00,,,0.00,weatherlink.com 1.10,2013-07-26 14:07:00,
2013-07-26 10:22:00,74.8,63.0,30.04,SW,219,0.0,2.0,66,0.00,,,0.00,weatherlink.com 1.10,2013-07-26 14:22:00,
2013-07-26 10:37:00,76.8,64.0,30.04,SSE,155,1.0,5.0,64,0.00,,,0.00,weatherlink.com 1.10,2013-07-26 14:37:00,
2013-07-26 10:52:00,78.4,64.0,30.04,ENE,57,0.0,2.0,62,0.00,,,0.00,weatherlink.com 1.10,2013-07-26 14:52:00,
2013-07-26 11:07:00,81.4,64.0,30.03,SE,136,0.0,3.0,55,0.00,,,0.00,weatherlink.com 1.10,2013-07-26 15:07:00,
2013-07-26 11:22:00,82.1,63.0,30.02,NW,316,1.0,4.0,52,0.00,,,0.00,weatherlink.com 1.10,2013-07-26 15:22:00,
2013-07-26 11:37:00,82.3,62.0,30.02,SSE,160,1.0,4.0,50,0.00,,,0.00,weatherlink.com 1.10,2013-07-26 15:37:00,
2013-07-26 11:52:00,82.0,63.0,30.02,SW,219,1.0,2.0,53,0.00,,,0.00,weatherlink.com 1.10,2013-07-26 15:52:00,
2013-07-26 12:07:00,82.4,61.0,30.02,SSE,158,0.0,3.0,48,0.00,,,0.00,weatherlink.com 1.10,2013-07-26 16:07:00,
2013-07-26 12:22:00,83.2,61.0,30.01,SE,145,3.0,5.0,48,0.00,,,0.00,weatherlink.com 1.10,2013-07-26 16:22:00,
2013-07-26 12:37:00,81.9,61.0,30.01,ENE,62,4.0,5.0,49,0.00,,,0.00,weatherlink.com 1.10,2013-07-26 16:37:00,
2013-07-26 12:52:00,81.6,62.0,30.01,ENE,60,2.0,6.0,51,0.00,,,0.00,weatherlink.com 1.10,2013-07-26 16:52:00,
2013-07-26 13:07:00,82.3,61.0,30.01,WSW,252,0.0,4.0,49,0.00,,,0.00,weatherlink.com 1.10,2013-07-26 17:07:00,
2013-07-26 13:22:00,82.8,61.0,30.00,WSW,243,2.0,8.0,48,0.00,,,0.00,weatherlink.com 1.10,2013-07-26 17:22:00,
2013-07-26 13:37:00,83.7,61.0,29.99,SE,146,2.0,6.0,47,0.00,,,0.00,weatherlink.com 1.10,2013-07-26 17:37:00,
2013-07-26 13:52:00,84.1,61.0,29.99,ENE,75,3.0,5.0,46,0.00,,,0.00,weatherlink.com 1.10,2013-07-26 17:52:00,
2013-07-26 14:07:00,82.6,63.0,29.99,WNW,284,2.0,6.0,52,0.00,,,0.00,weatherlink.com 1.10,2013-07-26 18:07:00,
2013-07-26 14:22:00,82.6,63.0,29.98,ENE,76,2.0,7.0,51,0.00,,,0.00,weatherlink.com 1.10,2013-07-26 18:22:00,
2013-07-26 14:37:00,84.1,63.0,29.98,SSW,198,3.0,6.0,50,0.00,,,0.00,weatherlink.com 1.10,2013-07-26 18:37:00,
2013-07-26 14:52:00,85.0,63.0,29.97,SE,132,1.0,4.0,48,0.00,,,0.00,weatherlink.com 1.10,2013-07-26 18:52:00,
2013-07-26 15:07:00,84.6,63.0,29.97,South,170,3.0,6.0,48,0.00,,,0.00,weatherlink.com 1.10,2013-07-26 19:07:00,
2013-07-26 15:22:00,84.0,61.0,29.96,WSW,238,2.0,6.0,46,0.00,,,0.00,weatherlink.com 1.10,2013-07-26 19:22:00,
2013-07-26 15:37:00,83.2,60.0,29.96,WSW,246,2.0,8.0,45,0.00,,,0.00,weatherlink.com 1.10,2013-07-26 19:37:00,
2013-07-26 15:52:00,83.4,62.0,29.96,West,281,2.0,6.0,48,0.00,,,0.00,weatherlink.com 1.10,2013-07-26 19:52:00,
2013-07-26 16:07:00,83.2,61.0,29.95,SE,128,2.0,10.0,48,0.00,,,0.00,weatherlink.com 1.10,2013-07-26 20:07:00,
2013-07-26 16:23:00,83.8,62.0,29.95,SE,138,4.0,7.0,48,0.00,,,0.00,weatherlink.com 1.10,2013-07-26 20:23:00,
2013-07-26 16:38:00,82.1,62.0,29.95,ENE,60,2.0,7.0,50,0.00,,,0.00,weatherlink.com 1.10,2013-07-26 20:38:00,
2013-07-26 16:53:00,81.7,62.0,29.95,SSE,162,1.0,10.0,51,0.00,,,0.00,weatherlink.com 1.10,2013-07-26 20:53:00,
2013-07-26 17:08:00,81.8,61.0,29.94,SSE,152,2.0,7.0,50,0.00,,,0.00,weatherlink.com 1.10,2013-07-26 21:08:00,
2013-07-26 17:23:00,81.8,61.0,29.94,West,278,1.0,7.0,49,0.00,,,0.00,weatherlink.com 1.10,2013-07-26 21:23:00,
2013-07-26 17:38:00,81.3,62.0,29.94,SE,141,1.0,6.0,52,0.00,,,0.00,weatherlink.com 1.10,2013-07-26 21:38:00,
2013-07-26 17:53:00,80.3,61.0,29.94,South,173,1.0,5.0,52,0.00,,,0.00,weatherlink.com 1.10,2013-07-26 21:53:00,
2013-07-26 18:08:00,79.3,62.0,29.94,SSW,193,0.0,5.0,55,0.00,,,0.00,weatherlink.com 1.10,2013-07-26 22:08:00,
2013-07-26 18:23:00,78.5,61.0,29.94,West,271,0.0,6.0,56,0.00,,,0.00,weatherlink.com 1.10,2013-07-26 22:23:00,
2013-07-26 18:38:00,77.8,62.0,29.93,SSE,163,2.0,5.0,59,0.00,,,0.00,weatherlink.com 1.10,2013-07-26 22:38:00,
2013-07-26 18:53:00,77.0,61.0,29.93,SSE,161,2.0,5.0,58,0.00,,,0.00,weatherlink.com 1.10,2013-07-26 22:53:00,
2013-07-26 19:08:00,76.6,61.0,29.93,SW,214,2.0,4.0,58,0.00,,,0.00,weatherlink.com 1.10,2013-07-26 23:08:00,
2013-07-26 19:23:00,76.4,60.0,29.93,South,188,0.0,5.0,58,0.00,,,0.00,weatherlink.com 1.10,2013-07-26 23:23:00,
2013-07-26 19:38:00,75.8,61.0,29.93,WSW,248,0.0,5.0,60,0.00,,,0.00,weatherlink.com 1.10,2013-07-26 23:38:00,
2013-07-26 19:53:00,75.3,61.0,29.93,SW,224,0.0,3.0,61,0.00,,,0.00,weatherlink.com 1.10,2013-07-26 23:53:00,
2013-07-26 20:08:00,74.7,61.0,29.93,West,271,0.0,2.0,63,0.00,,,0.00,weatherlink.com 1.10,2013-07-27 00:08:00,
2013-07-26 20:23:00,74.0,61.0,29.93,West,279,0.0,1.0,65,0.00,,,0.00,weatherlink.com 1.10,2013-07-27 00:23:00,
2013-07-26 20:38:00,73.3,62.0,29.93,South,173,0.0,1.0,67,0.00,,,0.00,weatherlink.com 1.10,2013-07-27 00:38:00,
2013-07-26 20:53:00,72.4,61.0,29.93,SSW,192,0.0,2.0,67,0.00,,,0.00,weatherlink.com 1.10,2013-07-27 00:53:00,
2013-07-26 21:08:00,71.6,60.0,29.92,SSW,192,0.0,1.0,67,0.00,,,0.00,weatherlink.com 1.10,2013-07-27 01:08:00,
2013-07-26 21:23:00,71.2,60.0,29.92,SSW,192,0.0,1.0,68,0.00,,,0.00,weatherlink.com 1.10,2013-07-27 01:23:00,
2013-07-26 21:38:00,70.8,60.0,29.92,SSW,192,0.0,1.0,69,0.00,,,0.00,weatherlink.com 1.10,2013-07-27 01:38:00,
2013-07-26 21:53:00,70.5,60.0,29.92,South,191,0.0,0.0,70,0.00,,,0.00,weatherlink.com 1.10,2013-07-27 01:53:00,
2013-07-26 22:08:00,70.3,60.0,29.92,South,191,0.0,0.0,71,0.00,,,0.00,weatherlink.com 1.10,2013-07-27 02:08:00,
2013-07-26 22:23:00,70.3,60.0,29.92,South,191,0.0,1.0,70,0.00,,,0.00,weatherlink.com 1.10,2013-07-27 02:23:00,
2013-07-26 22:38:00,70.4,61.0,29.92,WSW,250,0.0,1.0,71,0.00,,,0.00,weatherlink.com 1.10,2013-07-27 02:38:00,
2013-07-26 22:53:00,69.8,61.0,29.91,WSW,250,0.0,1.0,73,0.00,,,0.00,weatherlink.com 1.10,2013-07-27 02:53:00,
2013-07-26 23:08:00,69.7,61.0,29.91,SW,221,0.0,2.0,73,0.00,,,0.00,weatherlink.com 1.10,2013-07-27 03:08:00,
2013-07-26 23:23:00,69.7,61.0,29.91,SSW,207,0.0,1.0,73,0.00,,,0.00,weatherlink.com 1.10,2013-07-27 03:23:00,
2013-07-26 23:38:00,69.6,61.0,29.90,SSW,203,0.0,0.0,74,0.00,,,0.00,weatherlink.com 1.10,2013-07-27 03:38:00,
2013-07-26 23:53:00,69.7,61.0,29.90,SE,145,0.0,1.0,75,0.00,,,0.00,weatherlink.com 1.10,2013-07-27 03:53:00,